createdAt,value
2022-09-27T00:00:23.844Z,1.64
2022-09-27T00:01:24.300Z,1.62
2022-09-27T00:02:24.738Z,1.58
2022-09-27T00:03:25.141Z,1.53
2022-09-27T00:04:25.556Z,1.53
2022-09-27T00:05:25.991Z,1.47
2022-09-27T00:06:26.435Z,1.48
2022-09-27T00:07:26.861Z,1.52
2022-09-27T00:08:27.319Z,1.52
2022-09-27T00:09:27.730Z,1.52
2022-09-27T00:10:28.167Z,1.51
2022-09-27T00:11:28.604Z,1.53
2022-09-27T00:12:29.035Z,1.55
2022-09-27T00:13:29.496Z,1.56
2022-09-27T00:14:29.904Z,1.55
2022-09-27T00:15:30.339Z,1.53
2022-09-27T00:16:30.846Z,1.55
2022-09-27T00:17:31.211Z,1.57
2022-09-27T00:18:31.663Z,1.57
2022-09-27T00:19:32.077Z,1.60
2022-09-27T00:20:32.511Z,1.56
2022-09-27T00:21:32.946Z,1.58
2022-09-27T00:22:33.385Z,1.57
2022-09-27T00:23:33.841Z,1.58
2022-09-27T00:24:34.251Z,1.58
2022-09-27T00:25:34.686Z,1.59
2022-09-27T00:26:35.122Z,1.65
2022-09-27T00:27:35.556Z,1.69
2022-09-27T00:28:36.020Z,1.66
2022-09-27T00:29:36.426Z,1.63
2022-09-27T00:30:36.886Z,1.60
2022-09-27T00:31:37.346Z,1.57
2022-09-27T00:32:38.211Z,1.55
2022-09-27T00:33:38.183Z,1.56
2022-09-27T00:34:38.601Z,1.59
2022-09-27T00:35:39.040Z,1.60
2022-09-27T00:36:39.469Z,1.58
2022-09-27T00:37:39.912Z,1.65
2022-09-27T00:38:41.211Z,1.67
2022-09-27T00:39:40.776Z,1.66
2022-09-27T00:40:41.239Z,1.70
2022-09-27T00:41:41.644Z,1.71
2022-09-27T00:42:42.079Z,1.68
2022-09-27T00:43:42.538Z,1.69
2022-09-27T00:44:42.950Z,1.67
2022-09-27T00:45:43.384Z,1.67
2022-09-27T00:46:43.862Z,1.70
2022-09-27T00:47:44.252Z,1.68
2022-09-27T00:48:44.710Z,1.73
2022-09-27T00:49:45.123Z,1.78
2022-09-27T00:50:45.555Z,1.79
2022-09-27T00:51:45.991Z,1.82
2022-09-27T00:52:46.424Z,1.77
2022-09-27T00:53:46.884Z,1.75
2022-09-27T00:54:47.298Z,1.79
2022-09-27T00:55:47.728Z,1.81
2022-09-27T00:56:48.162Z,1.77
2022-09-27T00:57:48.602Z,1.82
2022-09-27T00:58:49.054Z,1.79
2022-09-27T00:59:49.469Z,1.76
2022-09-27T01:00:49.900Z,1.74
2022-09-27T01:01:50.380Z,1.70
2022-09-27T01:02:50.881Z,1.68
2022-09-27T01:03:51.226Z,1.68
2022-09-27T01:04:51.641Z,1.67
2022-09-27T01:05:52.073Z,1.68
2022-09-27T01:06:52.506Z,1.67
2022-09-27T01:07:52.943Z,1.69
2022-09-27T01:08:53.396Z,1.67
2022-09-27T01:09:53.813Z,1.67
2022-09-27T01:10:54.245Z,1.70
2022-09-27T01:11:54.679Z,1.72
2022-09-27T01:12:55.117Z,1.74
2022-09-27T01:13:55.571Z,1.76
2022-09-27T01:14:55.986Z,1.77
2022-09-27T01:15:56.496Z,1.79
2022-09-27T01:16:56.853Z,1.72
2022-09-27T01:17:57.287Z,1.72
2022-09-27T01:18:57.753Z,1.71
2022-09-27T01:19:58.151Z,1.77
2022-09-27T01:20:58.590Z,1.79
2022-09-27T01:21:59.021Z,1.79
2022-09-27T01:22:59.454Z,1.75
2022-09-27T01:23:59.914Z,1.71
2022-09-27T01:25:00.323Z,1.67
2022-09-27T01:26:00.757Z,1.66
2022-09-27T01:27:01.196Z,1.63
2022-09-27T01:28:01.630Z,1.60
2022-09-27T01:29:02.078Z,1.62
2022-09-27T01:30:02.501Z,1.64
2022-09-27T01:31:02.971Z,1.65
2022-09-27T01:32:04.081Z,1.71
2022-09-27T01:33:03.796Z,1.74
2022-09-27T01:34:04.257Z,1.74
2022-09-27T01:35:04.666Z,1.73
2022-09-27T01:36:05.105Z,1.71
2022-09-27T01:37:06.092Z,1.70
2022-09-27T01:38:05.964Z,1.71
2022-09-27T01:39:06.422Z,1.65
2022-09-27T01:40:06.834Z,1.63
2022-09-27T01:41:07.270Z,1.64
2022-09-27T01:42:11.213Z,1.58
2022-09-27T01:43:08.139Z,1.55
2022-09-27T01:44:08.604Z,1.54
2022-09-27T01:45:09.007Z,1.52
2022-09-27T01:46:09.486Z,1.53
2022-09-27T01:47:09.876Z,1.53
2022-09-27T01:48:10.307Z,1.52
2022-09-27T01:49:10.874Z,1.51
2022-09-27T01:50:11.179Z,1.50
2022-09-27T01:51:11.611Z,1.52
2022-09-27T01:52:12.044Z,1.55
2022-09-27T01:53:12.478Z,1.60
2022-09-27T01:54:12.940Z,1.56
2022-09-27T01:55:13.348Z,1.58
2022-09-27T01:56:13.783Z,1.59
2022-09-27T01:57:14.220Z,1.60
2022-09-27T01:58:14.654Z,1.61
2022-09-27T01:59:15.310Z,1.62
2022-09-27T02:00:15.515Z,1.60
2022-09-27T02:01:15.977Z,1.64
2022-09-27T02:02:16.395Z,1.65
2022-09-27T02:03:16.818Z,1.67
2022-09-27T02:04:17.274Z,1.71
2022-09-27T02:05:17.693Z,1.70
2022-09-27T02:06:18.119Z,1.69
2022-09-27T02:07:18.553Z,1.66
2022-09-27T02:08:18.988Z,1.64
2022-09-27T02:09:19.450Z,1.63
2022-09-27T02:10:19.853Z,1.58
2022-09-27T02:11:20.288Z,1.57
2022-09-27T02:12:20.722Z,1.57
2022-09-27T02:13:21.159Z,1.58
2022-09-27T02:14:21.616Z,1.56
2022-09-27T02:15:22.030Z,1.60
2022-09-27T02:16:22.501Z,1.60
2022-09-27T02:17:22.895Z,1.55
2022-09-27T02:18:23.326Z,1.60
2022-09-27T02:19:23.788Z,1.59
2022-09-27T02:20:24.198Z,1.59
2022-09-27T02:21:24.625Z,1.56
2022-09-27T02:22:25.065Z,1.56
2022-09-27T02:23:25.495Z,1.53
2022-09-27T02:24:25.948Z,1.52
2022-09-27T02:25:26.369Z,1.49
2022-09-27T02:26:26.796Z,1.50
2022-09-27T02:27:27.230Z,1.48
2022-09-27T02:28:27.662Z,1.47
2022-09-27T02:29:28.120Z,1.46
2022-09-27T02:30:28.533Z,1.44
2022-09-27T02:31:28.992Z,1.42
2022-09-27T02:32:29.405Z,1.43
2022-09-27T02:33:29.837Z,1.46
2022-09-27T02:34:30.284Z,1.49
2022-09-27T02:35:30.706Z,1.50
2022-09-27T02:36:31.138Z,1.50
2022-09-27T02:37:31.568Z,1.52
2022-09-27T02:38:32.001Z,1.53
2022-09-27T02:39:32.456Z,1.56
2022-09-27T02:40:32.978Z,1.54
2022-09-27T02:41:33.303Z,1.57
2022-09-27T02:42:33.736Z,1.57
2022-09-27T02:43:34.182Z,1.63
2022-09-27T02:44:34.633Z,1.68
2022-09-27T02:45:35.040Z,1.74
2022-09-27T02:46:35.567Z,1.76
2022-09-27T02:47:35.906Z,1.75
2022-09-27T02:48:36.336Z,1.71
2022-09-27T02:49:36.792Z,1.68
2022-09-27T02:50:37.205Z,1.70
2022-09-27T02:51:37.638Z,1.74
2022-09-27T02:52:38.070Z,1.73
2022-09-27T02:53:38.509Z,1.72
2022-09-27T02:54:38.966Z,1.74
2022-09-27T02:55:39.375Z,1.75
2022-09-27T02:56:39.814Z,1.70
2022-09-27T02:57:40.238Z,1.72
2022-09-27T02:58:40.676Z,1.71
2022-09-27T02:59:41.124Z,1.68
2022-09-27T03:00:42.236Z,1.69
2022-09-27T03:01:42.035Z,1.71
2022-09-27T03:02:42.501Z,1.75
2022-09-27T03:03:42.837Z,1.74
2022-09-27T03:04:43.293Z,1.70
2022-09-27T03:05:43.706Z,1.71
2022-09-27T03:06:44.143Z,1.69
2022-09-27T03:07:44.572Z,1.69
2022-09-27T03:08:45.009Z,1.67
2022-09-27T03:09:45.463Z,1.64
2022-09-27T03:10:45.873Z,1.60
2022-09-27T03:11:46.309Z,1.60
2022-09-27T03:12:46.740Z,1.57
2022-09-27T03:14:07.240Z,1.57
2022-09-27T03:14:47.625Z,1.55
2022-09-27T03:15:48.039Z,1.55
2022-09-27T03:16:48.569Z,1.54
2022-09-27T03:17:48.908Z,1.54
2022-09-27T03:18:49.339Z,1.55
2022-09-27T03:19:49.802Z,1.55
2022-09-27T03:20:50.206Z,1.56
2022-09-27T03:21:50.640Z,1.55
2022-09-27T03:22:51.071Z,1.58
2022-09-27T03:23:51.509Z,1.64
2022-09-27T03:24:51.976Z,1.65
2022-09-27T03:25:52.372Z,1.66
2022-09-27T03:26:52.813Z,1.63
2022-09-27T03:27:53.240Z,1.64
2022-09-27T03:28:53.673Z,1.66
2022-09-27T03:29:54.128Z,1.67
2022-09-27T03:30:54.605Z,1.69
2022-09-27T03:31:54.973Z,1.67
2022-09-27T03:32:55.407Z,1.70
2022-09-27T03:33:55.839Z,1.71
2022-09-27T03:34:56.292Z,1.68
2022-09-27T03:35:56.711Z,1.67
2022-09-27T03:36:57.145Z,1.65
2022-09-27T03:37:57.576Z,1.65
2022-09-27T03:38:58.010Z,1.67
2022-09-27T03:39:58.461Z,1.67
2022-09-27T03:40:59.001Z,1.64
2022-09-27T03:41:59.307Z,1.65
2022-09-27T03:42:59.739Z,1.67
2022-09-27T03:44:00.175Z,1.70
2022-09-27T03:45:00.629Z,1.74
2022-09-27T03:46:01.093Z,1.75
2022-09-27T03:47:01.470Z,1.72
2022-09-27T03:48:01.905Z,1.82
2022-09-27T03:49:02.338Z,1.82
2022-09-27T03:50:02.800Z,1.80
2022-09-27T03:51:03.202Z,1.81
2022-09-27T03:52:03.637Z,1.77
2022-09-27T03:53:04.069Z,1.78
2022-09-27T03:54:04.503Z,1.76
2022-09-27T03:55:04.954Z,1.79
2022-09-27T03:56:05.368Z,1.73
2022-09-27T03:57:05.802Z,1.75
2022-09-27T03:58:06.234Z,1.78
2022-09-27T03:59:06.668Z,1.77
2022-09-27T04:00:07.132Z,1.78
2022-09-27T04:01:07.590Z,1.80
2022-09-27T04:02:08.032Z,1.82
2022-09-27T04:03:08.398Z,1.83
2022-09-27T04:04:11.183Z,1.84
2022-09-27T04:05:09.311Z,1.84
2022-09-27T04:06:09.699Z,1.92
2022-09-27T04:07:10.131Z,1.90
2022-09-27T04:08:10.569Z,1.90
2022-09-27T04:09:11.034Z,1.91
2022-09-27T04:10:11.451Z,1.89
2022-09-27T04:11:11.862Z,1.87
2022-09-27T04:12:12.297Z,1.84
2022-09-27T04:13:12.726Z,1.85
2022-09-27T04:14:13.192Z,1.81
2022-09-27T04:15:13.618Z,1.76
2022-09-27T04:16:14.083Z,1.74
2022-09-27T04:17:14.559Z,1.74
2022-09-27T04:18:14.910Z,1.71
2022-09-27T04:19:15.442Z,1.74
2022-09-27T04:20:15.785Z,1.74
2022-09-27T04:21:16.195Z,1.72
2022-09-27T04:22:16.627Z,1.72
2022-09-27T04:23:17.060Z,1.71
2022-09-27T04:24:17.498Z,1.71
2022-09-27T04:25:17.949Z,1.65
2022-09-27T04:26:18.360Z,1.62
2022-09-27T04:27:18.791Z,1.65
2022-09-27T04:28:19.225Z,1.65
2022-09-27T04:29:19.657Z,1.66
2022-09-27T04:30:20.113Z,1.68
2022-09-27T04:31:20.579Z,1.68
2022-09-27T04:32:20.959Z,1.73
2022-09-27T04:33:21.392Z,1.76
2022-09-27T04:34:21.825Z,1.79
2022-09-27T04:35:22.291Z,1.79
2022-09-27T04:36:22.689Z,1.77
2022-09-27T04:37:23.124Z,1.78
2022-09-27T04:38:23.558Z,1.75
2022-09-27T04:39:23.990Z,1.76
2022-09-27T04:40:24.499Z,1.76
2022-09-27T04:41:24.857Z,1.71
2022-09-27T04:42:26.088Z,1.70
2022-09-27T04:43:25.721Z,1.71
2022-09-27T04:44:26.169Z,1.68
2022-09-27T04:45:26.610Z,1.72
2022-09-27T04:46:27.109Z,1.74
2022-09-27T04:47:27.452Z,1.73
2022-09-27T04:48:28.751Z,1.68
2022-09-27T04:49:28.319Z,1.67
2022-09-27T04:50:30.362Z,1.73
2022-09-27T04:51:29.189Z,1.77
2022-09-27T04:52:29.620Z,1.83
2022-09-27T04:53:30.055Z,1.83
2022-09-27T04:54:30.483Z,1.86
2022-09-27T04:55:30.935Z,1.87
2022-09-27T04:56:31.352Z,1.82
2022-09-27T04:57:31.782Z,1.82
2022-09-27T04:58:32.215Z,1.89
2022-09-27T04:59:32.654Z,1.90
2022-09-27T05:00:33.109Z,1.87
2022-09-27T05:01:33.557Z,1.85
2022-09-27T05:02:34.004Z,1.83
2022-09-27T05:03:34.376Z,1.82
2022-09-27T05:04:34.815Z,1.79
2022-09-27T05:05:35.269Z,1.81
2022-09-27T05:06:35.678Z,1.80
2022-09-27T05:07:36.132Z,1.77
2022-09-27T05:08:36.544Z,1.75
2022-09-27T05:09:36.983Z,1.71
2022-09-27T05:10:37.433Z,1.73
2022-09-27T05:11:37.839Z,1.74
2022-09-27T05:12:38.275Z,1.73
2022-09-27T05:13:38.715Z,1.73
2022-09-27T05:14:39.141Z,1.71
2022-09-27T05:15:39.593Z,1.74
2022-09-27T05:16:40.042Z,1.73
2022-09-27T05:17:40.441Z,1.74
2022-09-27T05:18:40.873Z,1.73
2022-09-27T05:19:41.309Z,1.71
2022-09-27T05:20:41.760Z,1.70
2022-09-27T05:21:42.174Z,1.69
2022-09-27T05:22:42.607Z,1.69
2022-09-27T05:23:45.930Z,1.75
2022-09-27T05:24:43.470Z,1.70
2022-09-27T05:25:43.924Z,1.65
2022-09-27T05:26:44.344Z,1.60
2022-09-27T05:27:44.769Z,1.58
2022-09-27T05:28:45.200Z,1.57
2022-09-27T05:29:45.634Z,1.55
2022-09-27T05:30:46.179Z,1.54
2022-09-27T05:31:46.508Z,1.53
2022-09-27T05:32:46.931Z,1.51
2022-09-27T05:33:47.364Z,1.52
2022-09-27T05:34:47.796Z,1.48
2022-09-27T05:35:48.252Z,1.45
2022-09-27T05:36:48.664Z,1.42
2022-09-27T05:37:49.104Z,1.46
2022-09-27T05:38:49.530Z,1.43
2022-09-27T05:39:49.963Z,1.41
2022-09-27T05:40:50.475Z,1.45
2022-09-27T05:42:51.266Z,1.45
2022-09-27T05:43:51.695Z,1.43
2022-09-27T05:44:52.154Z,1.42
2022-09-27T05:45:52.615Z,1.40
2022-09-27T05:46:52.999Z,1.40
2022-09-27T05:47:53.430Z,1.42
2022-09-27T05:48:53.873Z,1.41
2022-09-27T05:49:54.301Z,1.40
2022-09-27T05:50:54.749Z,1.39
2022-09-27T05:51:55.165Z,1.38
2022-09-27T05:52:55.593Z,1.34
2022-09-27T05:53:56.029Z,1.32
2022-09-27T05:54:56.462Z,1.31
2022-09-27T05:55:56.915Z,1.28
2022-09-27T05:56:57.331Z,1.34
2022-09-27T05:57:57.775Z,1.40
2022-09-27T05:58:58.195Z,1.41
2022-09-27T05:59:58.630Z,1.42
2022-09-27T06:00:59.085Z,1.42
2022-09-27T06:01:59.535Z,1.45
2022-09-27T06:03:00.009Z,1.45
2022-09-27T06:04:00.368Z,1.53
2022-09-27T06:05:00.795Z,1.52
2022-09-27T06:06:01.256Z,1.53
2022-09-27T06:07:01.665Z,1.56
2022-09-27T06:08:02.096Z,1.53
2022-09-27T06:09:02.545Z,1.53
2022-09-27T06:10:02.965Z,1.53
2022-09-27T06:11:03.414Z,1.50
2022-09-27T06:12:03.827Z,1.50
2022-09-27T06:13:04.262Z,1.51
2022-09-27T06:14:04.699Z,1.52
2022-09-27T06:15:05.128Z,1.53
2022-09-27T06:16:05.584Z,1.53
2022-09-27T06:17:06.038Z,1.56
2022-09-27T06:18:06.433Z,1.56
2022-09-27T06:19:06.864Z,1.57
2022-09-27T06:20:07.295Z,1.52
2022-09-27T06:21:07.748Z,1.49
2022-09-27T06:22:08.166Z,1.42
2022-09-27T06:23:08.596Z,1.39
2022-09-27T06:24:09.032Z,1.37
2022-09-27T06:25:09.462Z,1.38
2022-09-27T06:26:09.928Z,1.38
2022-09-27T06:27:10.331Z,1.43
2022-09-27T06:28:10.770Z,1.42
2022-09-27T06:29:11.268Z,1.45
2022-09-27T06:30:11.633Z,1.47
2022-09-27T06:31:12.149Z,1.50
2022-09-27T06:32:12.501Z,1.52
2022-09-27T06:33:12.935Z,1.52
2022-09-27T06:34:13.369Z,1.49
2022-09-27T06:35:13.802Z,1.48
2022-09-27T06:36:14.266Z,1.51
2022-09-27T06:37:14.668Z,1.49
2022-09-27T06:38:15.107Z,1.50
2022-09-27T06:39:15.686Z,1.49
2022-09-27T06:40:16.038Z,1.50
2022-09-27T06:41:16.430Z,1.50
2022-09-27T06:42:16.841Z,1.48
2022-09-27T06:43:17.273Z,1.50
2022-09-27T06:44:17.707Z,1.50
2022-09-27T06:45:18.142Z,1.43
2022-09-27T06:46:18.636Z,1.37
2022-09-27T06:47:19.010Z,1.31
2022-09-27T06:48:19.451Z,1.23
2022-09-27T06:49:19.879Z,1.25
2022-09-27T06:50:20.314Z,1.30
2022-09-27T06:51:20.773Z,1.33
2022-09-27T06:52:21.194Z,1.34
2022-09-27T06:53:21.618Z,1.31
2022-09-27T06:54:22.054Z,1.25
2022-09-27T06:55:22.529Z,1.25
2022-09-27T06:56:22.959Z,1.27
2022-09-27T06:57:23.367Z,1.28
2022-09-27T06:58:23.801Z,1.29
2022-09-27T06:59:24.233Z,1.34
2022-09-27T07:00:24.674Z,1.42
2022-09-27T07:01:25.163Z,1.45
2022-09-27T07:02:25.565Z,1.45
2022-09-27T07:03:29.512Z,1.43
2022-09-27T07:04:26.414Z,1.42
2022-09-27T07:05:26.857Z,1.37
2022-09-27T07:06:27.312Z,1.37
2022-09-27T07:07:27.714Z,1.29
2022-09-27T07:08:28.150Z,1.20
2022-09-27T07:09:28.594Z,1.13
2022-09-27T07:10:29.023Z,1.09
2022-09-27T07:11:29.482Z,1.07
2022-09-27T07:12:29.891Z,1.13
2022-09-27T07:13:30.326Z,1.19
2022-09-27T07:14:30.762Z,1.25
2022-09-27T07:15:31.202Z,1.27
2022-09-27T07:16:31.731Z,1.28
2022-09-27T07:17:32.067Z,1.25
2022-09-27T07:18:32.504Z,1.23
2022-09-27T07:19:32.940Z,1.22
2022-09-27T07:20:33.376Z,1.21
2022-09-27T07:21:33.842Z,1.20
2022-09-27T07:22:34.248Z,1.20
2022-09-27T07:23:34.685Z,1.22
2022-09-27T07:24:35.117Z,1.24
2022-09-27T07:25:35.561Z,1.24
2022-09-27T07:26:36.015Z,1.25
2022-09-27T07:27:38.566Z,1.29
2022-09-27T07:28:36.861Z,1.33
2022-09-27T07:29:37.293Z,1.39
2022-09-27T07:30:37.773Z,1.40
2022-09-27T07:31:38.201Z,1.40
2022-09-27T07:32:38.602Z,1.37
2022-09-27T07:33:43.022Z,1.35
2022-09-27T07:34:39.476Z,1.29
2022-09-27T07:35:39.907Z,1.25
2022-09-27T07:36:40.362Z,1.28
2022-09-27T07:37:40.778Z,1.29
2022-09-27T07:38:41.214Z,1.28
2022-09-27T07:39:41.648Z,1.35
2022-09-27T07:40:42.159Z,1.40
2022-09-27T07:41:42.540Z,1.42
2022-09-27T07:42:42.958Z,1.44
2022-09-27T07:43:43.390Z,1.46
2022-09-27T07:44:43.825Z,1.55
2022-09-27T07:45:44.317Z,1.62
2022-09-27T07:46:44.719Z,1.63
2022-09-27T07:47:45.135Z,1.63
2022-09-27T07:48:45.578Z,1.62
2022-09-27T07:49:45.997Z,1.58
2022-09-27T07:50:46.433Z,1.52
2022-09-27T07:51:46.891Z,1.46
2022-09-27T07:52:47.305Z,1.36
2022-09-27T07:53:47.734Z,1.29
2022-09-27T07:54:48.176Z,1.32
2022-09-27T07:55:48.639Z,1.34
2022-09-27T07:56:49.063Z,1.35
2022-09-27T07:57:49.476Z,1.36
2022-09-27T07:58:49.911Z,1.40
2022-09-27T07:59:50.348Z,1.41
2022-09-27T08:00:50.824Z,1.38
2022-09-27T08:01:51.289Z,1.37
2022-09-27T08:02:51.651Z,1.35
2022-09-27T08:03:52.088Z,1.32
2022-09-27T08:04:52.521Z,1.27
2022-09-27T08:05:52.970Z,1.15
2022-09-27T08:06:53.410Z,1.07
2022-09-27T08:07:53.838Z,1.03
2022-09-27T08:08:54.260Z,1.01
2022-09-27T08:09:54.697Z,1.01
2022-09-27T08:10:55.148Z,1.01
2022-09-27T08:11:55.590Z,1.01
2022-09-27T08:12:56.042Z,1.03
2022-09-27T08:13:56.446Z,1.08
2022-09-27T08:14:56.883Z,1.11
2022-09-27T08:15:57.316Z,1.13
2022-09-27T08:16:57.772Z,1.13
2022-09-27T08:17:58.187Z,1.11
2022-09-27T08:18:58.629Z,1.08
2022-09-27T08:19:59.066Z,1.07
2022-09-27T08:20:59.500Z,1.07
2022-09-27T08:21:59.963Z,1.09
2022-09-27T08:23:00.371Z,1.10
2022-09-27T08:24:00.814Z,1.10
2022-09-27T08:25:01.247Z,1.10
2022-09-27T08:26:01.683Z,1.10
2022-09-27T08:27:02.141Z,1.11
2022-09-27T08:28:02.558Z,1.12
2022-09-27T08:29:02.999Z,1.14
2022-09-27T08:30:03.434Z,1.13
2022-09-27T08:31:03.871Z,1.11
2022-09-27T08:32:04.354Z,1.10
2022-09-27T08:33:04.751Z,1.10
2022-09-27T08:34:05.192Z,1.12
2022-09-27T08:35:05.622Z,1.15
2022-09-27T08:36:06.064Z,1.17
2022-09-27T08:37:06.516Z,1.15
2022-09-27T08:38:06.931Z,1.14
2022-09-27T08:39:07.377Z,1.10
2022-09-27T08:40:07.810Z,1.08
2022-09-27T08:41:08.251Z,1.09
2022-09-27T08:42:08.709Z,1.11
2022-09-27T08:43:09.129Z,1.13
2022-09-27T08:44:09.565Z,1.11
2022-09-27T08:45:10.001Z,1.06
2022-09-27T08:46:10.459Z,1.02
2022-09-27T08:47:10.916Z,0.98
2022-09-27T08:48:11.321Z,0.96
2022-09-27T08:49:11.762Z,0.91
2022-09-27T08:50:12.202Z,0.91
2022-09-27T08:51:12.645Z,0.93
2022-09-27T08:52:13.105Z,0.95
2022-09-27T08:53:13.529Z,0.96
2022-09-27T08:54:14.006Z,0.92
2022-09-27T08:55:14.409Z,0.90
2022-09-27T08:56:14.849Z,0.92
2022-09-27T08:57:15.311Z,0.93
2022-09-27T08:58:15.732Z,0.94
2022-09-27T08:59:16.169Z,0.96
2022-09-27T09:00:16.608Z,0.95
2022-09-27T09:01:17.118Z,0.95
2022-09-27T09:02:17.539Z,0.96
2022-09-27T09:03:17.931Z,0.98
2022-09-27T09:04:18.374Z,1.01
2022-09-27T09:05:18.810Z,1.04
2022-09-27T09:06:19.252Z,1.07
2022-09-27T09:07:19.709Z,1.09
2022-09-27T09:08:20.129Z,1.10
2022-09-27T09:09:20.567Z,1.11
2022-09-27T09:10:21.287Z,1.11
2022-09-27T09:11:21.446Z,1.11
2022-09-27T09:12:21.908Z,1.13
2022-09-27T09:13:22.323Z,1.14
2022-09-27T09:14:22.771Z,1.19
2022-09-27T09:15:23.201Z,1.23
2022-09-27T09:16:23.678Z,1.32
2022-09-27T09:17:24.095Z,1.38
2022-09-27T09:18:24.510Z,1.45
2022-09-27T09:19:24.951Z,1.45
2022-09-27T09:20:25.399Z,1.43
2022-09-27T09:21:25.823Z,1.39
2022-09-27T09:22:26.278Z,1.39
2022-09-27T09:23:26.696Z,1.36
2022-09-27T09:24:27.131Z,1.33
2022-09-27T09:25:27.569Z,1.27
2022-09-27T09:26:28.003Z,1.24
2022-09-27T09:27:28.459Z,1.24
2022-09-27T09:28:28.879Z,1.24
2022-09-27T09:29:29.328Z,1.23
2022-09-27T09:30:29.749Z,1.20
2022-09-27T09:31:30.230Z,1.14
2022-09-27T09:32:30.640Z,1.12
2022-09-27T09:33:31.058Z,1.11
2022-09-27T09:34:31.496Z,1.14
2022-09-27T09:35:31.935Z,1.16
2022-09-27T09:36:32.370Z,1.18
2022-09-27T09:37:32.829Z,1.17
2022-09-27T09:38:33.257Z,1.17
2022-09-27T09:39:33.681Z,1.18
2022-09-27T09:40:34.173Z,1.18
2022-09-27T09:41:34.553Z,1.11
2022-09-27T09:42:35.013Z,1.06
2022-09-27T09:43:35.428Z,1.02
2022-09-27T09:44:35.865Z,1.01
2022-09-27T09:45:36.317Z,0.98
2022-09-27T09:46:36.740Z,0.99
2022-09-27T09:47:37.205Z,0.99
2022-09-27T09:48:37.619Z,1.01
2022-09-27T09:49:38.057Z,1.02
2022-09-27T09:50:38.498Z,1.03
2022-09-27T09:51:38.936Z,1.02
2022-09-27T09:52:39.403Z,1.02
2022-09-27T09:53:39.814Z,1.05
2022-09-27T09:54:40.255Z,1.08
2022-09-27T09:55:40.698Z,1.09
2022-09-27T09:56:41.133Z,1.09
2022-09-27T09:57:41.591Z,1.05
2022-09-27T09:58:42.012Z,1.05
2022-09-27T09:59:42.452Z,1.04
2022-09-27T10:00:42.946Z,1.02
2022-09-27T10:01:43.336Z,1.00
2022-09-27T10:02:43.789Z,0.98
2022-09-27T10:03:44.210Z,0.97
2022-09-27T10:04:44.654Z,0.96
2022-09-27T10:05:45.093Z,0.97
2022-09-27T10:06:45.537Z,0.98
2022-09-27T10:07:45.993Z,1.01
2022-09-27T10:08:46.416Z,1.04
2022-09-27T10:09:46.852Z,1.05
2022-09-27T10:10:47.297Z,1.04
2022-09-27T10:11:47.733Z,1.07
2022-09-27T10:12:48.212Z,1.08
2022-09-27T10:13:48.613Z,1.09
2022-09-27T10:14:49.053Z,1.12
2022-09-27T10:15:49.490Z,1.15
2022-09-27T10:16:49.932Z,1.17
2022-09-27T10:17:50.385Z,1.18
2022-09-27T10:18:50.809Z,1.19
2022-09-27T10:19:51.242Z,1.22
2022-09-27T10:20:51.691Z,1.16
2022-09-27T10:21:52.119Z,1.08
2022-09-27T10:22:52.583Z,0.94
2022-09-27T10:23:52.999Z,0.86
2022-09-27T10:24:53.442Z,0.82
2022-09-27T10:25:53.892Z,0.77
2022-09-27T10:26:54.326Z,0.73
2022-09-27T10:27:54.797Z,0.71
2022-09-27T10:28:55.217Z,0.72
2022-09-27T10:29:55.662Z,0.75
2022-09-27T10:30:56.108Z,0.79
2022-09-27T10:31:56.646Z,0.84
2022-09-27T10:32:57.050Z,0.88
2022-09-27T10:33:57.449Z,0.89
2022-09-27T10:34:57.911Z,0.88
2022-09-27T10:35:58.332Z,0.89
2022-09-27T10:36:58.782Z,0.92
2022-09-27T10:37:59.237Z,0.94
2022-09-27T10:38:59.661Z,0.95
2022-09-27T10:40:00.120Z,0.94
2022-09-27T10:41:00.584Z,0.94
2022-09-27T10:42:00.984Z,0.96
2022-09-27T10:43:01.454Z,0.97
2022-09-27T10:44:01.874Z,0.97
2022-09-27T10:45:02.310Z,0.97
2022-09-27T10:46:02.799Z,1.01
2022-09-27T10:47:03.197Z,1.05
2022-09-27T10:48:03.649Z,1.11
2022-09-27T10:49:04.103Z,1.15
2022-09-27T10:50:04.508Z,1.17
2022-09-27T10:51:04.950Z,1.19
2022-09-27T10:52:05.391Z,1.17
2022-09-27T10:53:05.849Z,1.16
2022-09-27T10:54:06.271Z,1.15
2022-09-27T10:55:06.707Z,1.11
2022-09-27T10:56:07.147Z,1.04
2022-09-27T10:57:07.593Z,1.00
2022-09-27T10:58:08.043Z,0.98
2022-09-27T10:59:08.465Z,0.97
2022-09-27T11:00:08.905Z,0.93
2022-09-27T11:01:09.423Z,0.90
2022-09-27T11:02:10.320Z,0.89
2022-09-27T11:03:10.261Z,0.89
2022-09-27T11:04:10.671Z,0.90
2022-09-27T11:05:14.770Z,0.92
2022-09-27T11:06:11.554Z,0.97
2022-09-27T11:07:12.010Z,1.00
2022-09-27T11:08:12.472Z,1.03
2022-09-27T11:09:12.884Z,1.05
2022-09-27T11:10:13.316Z,1.08
2022-09-27T11:11:13.760Z,1.11
2022-09-27T11:12:14.211Z,1.13
2022-09-27T11:13:14.657Z,1.16
2022-09-27T11:14:15.075Z,1.21
2022-09-27T11:15:15.529Z,1.24
2022-09-27T11:16:15.989Z,1.24
2022-09-27T11:17:16.392Z,1.22
2022-09-27T11:18:16.849Z,1.19
2022-09-27T11:19:17.268Z,1.18
2022-09-27T11:20:17.749Z,1.18
2022-09-27T11:21:18.144Z,1.19
2022-09-27T11:22:18.579Z,1.19
2022-09-27T11:23:19.044Z,1.20
2022-09-27T11:24:19.457Z,1.17
2022-09-27T11:25:19.896Z,1.17
2022-09-27T11:26:20.338Z,1.19
2022-09-27T11:27:20.767Z,1.18
2022-09-27T11:28:21.228Z,1.19
2022-09-27T11:29:21.647Z,1.18
2022-09-27T11:30:22.115Z,1.16
2022-09-27T11:31:22.598Z,1.12
2022-09-27T11:32:22.954Z,1.08
2022-09-27T11:33:23.419Z,1.06
2022-09-27T11:34:23.830Z,1.05
2022-09-27T11:35:24.279Z,1.07
2022-09-27T11:36:24.709Z,1.08
2022-09-27T11:37:25.157Z,1.10
2022-09-27T11:38:51.173Z,1.10
2022-09-27T11:39:26.024Z,1.15
2022-09-27T11:40:26.512Z,1.20
2022-09-27T11:41:26.910Z,1.26
2022-09-27T11:42:27.337Z,1.31
2022-09-27T11:43:27.800Z,1.31
2022-09-27T11:44:28.213Z,1.26
2022-09-27T11:46:36.624Z,1.08
2022-09-27T11:47:29.634Z,0.99
2022-09-27T11:48:29.992Z,0.96
2022-09-27T11:49:30.420Z,0.95
2022-09-27T11:50:30.850Z,0.94
2022-09-27T11:51:31.304Z,0.89
2022-09-27T11:52:31.736Z,0.86
2022-09-27T11:53:32.201Z,0.83
2022-09-27T11:54:32.631Z,0.80
2022-09-27T11:55:33.073Z,0.83
2022-09-27T11:56:33.532Z,0.90
2022-09-27T11:57:33.970Z,0.97
2022-09-27T11:58:34.425Z,1.02
2022-09-27T11:59:34.853Z,1.02
2022-09-27T12:00:35.302Z,0.96
2022-09-27T12:01:35.829Z,0.93
2022-09-27T12:02:36.209Z,0.90
2022-09-27T12:03:36.657Z,0.92
2022-09-27T12:04:37.086Z,0.95
2022-09-27T12:05:37.515Z,0.98
2022-09-27T12:06:37.958Z,1.00
2022-09-27T12:07:38.407Z,1.02
2022-09-27T12:08:38.867Z,1.04
2022-09-27T12:09:39.284Z,1.10
2022-09-27T12:10:39.724Z,1.11
2022-09-27T12:11:40.166Z,1.04
2022-09-27T12:12:40.607Z,0.97
2022-09-27T12:13:41.068Z,0.95
2022-09-27T12:14:41.487Z,0.96
2022-09-27T12:15:41.983Z,0.98
2022-09-27T12:16:42.378Z,1.02
2022-09-27T12:17:42.813Z,1.04
2022-09-27T12:18:45.807Z,1.05
2022-09-27T12:19:43.689Z,1.02
2022-09-27T12:20:44.128Z,0.99
2022-09-27T12:21:44.570Z,0.97
2022-09-27T12:22:58.639Z,0.95
2022-09-27T12:23:45.474Z,0.94
2022-09-27T12:24:45.889Z,0.97
2022-09-27T12:25:46.331Z,1.00
2022-09-27T12:26:46.776Z,1.06
2022-09-27T12:27:47.210Z,1.11
2022-09-27T12:28:47.666Z,1.14
2022-09-27T12:29:48.086Z,1.14
2022-09-27T12:30:48.521Z,1.15
2022-09-27T12:31:48.989Z,1.11
2022-09-27T12:32:49.400Z,1.04
2022-09-27T12:33:49.869Z,0.98
2022-09-27T12:34:50.279Z,0.95
2022-09-27T12:35:50.720Z,0.92
2022-09-27T12:36:51.166Z,0.91
2022-09-27T12:37:51.608Z,0.89
2022-09-27T12:38:52.070Z,0.90
2022-09-27T12:39:52.498Z,0.92
2022-09-27T12:40:52.982Z,0.92
2022-09-27T12:41:53.396Z,0.92
2022-09-27T12:42:53.831Z,0.92
2022-09-27T12:43:54.293Z,0.93
2022-09-27T12:44:54.717Z,0.95
2022-09-27T12:45:55.162Z,0.96
2022-09-27T12:46:55.687Z,0.96
2022-09-27T12:47:56.049Z,0.94
2022-09-27T12:48:56.543Z,0.94
2022-09-27T12:50:01.176Z,0.89
2022-09-27T12:50:57.384Z,0.89
2022-09-27T12:51:57.832Z,0.95
2022-09-27T12:52:58.273Z,0.99
2022-09-27T12:53:58.745Z,0.97
2022-09-27T12:54:59.161Z,0.97
2022-09-27T12:55:59.607Z,0.92
2022-09-27T12:57:00.054Z,0.89
2022-09-27T12:58:00.502Z,0.86
2022-09-27T12:59:00.966Z,0.86
2022-09-27T13:00:01.393Z,0.86
2022-09-27T13:01:01.896Z,0.84
2022-09-27T13:02:02.317Z,0.82
2022-09-27T13:03:21.368Z,0.83
2022-09-27T13:04:03.202Z,0.85
2022-09-27T13:05:03.631Z,0.88
2022-09-27T13:06:04.091Z,0.92
2022-09-27T13:07:04.518Z,0.95
2022-09-27T13:08:04.974Z,0.97
2022-09-27T13:09:05.428Z,0.99
2022-09-27T13:10:05.854Z,1.00
2022-09-27T13:11:06.294Z,1.03
2022-09-27T13:12:06.746Z,1.08
2022-09-27T13:13:07.181Z,1.13
2022-09-27T13:14:07.684Z,1.15
2022-09-27T13:15:08.061Z,1.18
2022-09-27T13:16:08.572Z,1.23
2022-09-27T13:17:08.943Z,1.24
2022-09-27T13:18:09.381Z,1.23
2022-09-27T13:19:09.844Z,1.23
2022-09-27T13:20:10.263Z,1.23
2022-09-27T13:21:10.699Z,1.22
2022-09-27T13:22:11.150Z,1.21
2022-09-27T13:23:11.579Z,1.19
2022-09-27T13:24:12.050Z,1.17
2022-09-27T13:25:12.454Z,1.13
2022-09-27T13:26:12.910Z,1.13